< < Back
Terminal Aerodrome Forecast


Current Version              Previous Versions:   1  2  3  4  5  6  7  8  9  

Terminal Aerodrome Forecast

498
FTUS42 KCAE 282300
TAFAGS
TAF
KAGS 282320Z 2900/2924 00000KT P6SM SKC
     FM291600 20008KT P6SM SCT250=



Latest METAR

887
SAUS70 KWBC 282356
MTRAGS
METAR KAGS 282353Z 00000KT 10SM CLR 03/M05 A3028 RMK AO2 SLP256
T00281050 10117 20028 53014


USA.gov is the U.S. government's official web portal to all federal, state and local government web resources and services.